sensor_id;sensor_type;location;lat;lon;timestamp;temperature;humidity
52245;DHT22;55759;51.586;-1.758;2023-03-31T00:02:03;9.90;93.00
52245;DHT22;55759;51.586;-1.758;2023-03-31T00:04:39;9.90;92.90
52245;DHT22;55759;51.586;-1.758;2023-03-31T00:07:13;9.80;93.00
52245;DHT22;55759;51.586;-1.758;2023-03-31T00:09:39;9.80;93.00
52245;DHT22;55759;51.586;-1.758;2023-03-31T00:12:16;9.80;93.10
52245;DHT22;55759;51.586;-1.758;2023-03-31T00:14:42;9.80;93.10
52245;DHT22;55759;51.586;-1.758;2023-03-31T00:17:09;9.80;93.20
52245;DHT22;55759;51.586;-1.758;2023-03-31T00:19:35;9.80;93.20
52245;DHT22;55759;51.586;-1.758;2023-03-31T00:22:01;9.80;93.20
52245;DHT22;55759;51.586;-1.758;2023-03-31T00:24:27;9.70;93.30
52245;DHT22;55759;51.586;-1.758;2023-03-31T00:26:58;9.70;93.40
52245;DHT22;55759;51.586;-1.758;2023-03-31T00:29:25;9.70;93.50
52245;DHT22;55759;51.586;-1.758;2023-03-31T00:31:51;9.70;93.60
52245;DHT22;55759;51.586;-1.758;2023-03-31T00:34:16;9.70;93.60
52245;DHT22;55759;51.586;-1.758;2023-03-31T00:36:42;9.80;93.60
52245;DHT22;55759;51.586;-1.758;2023-03-31T00:39:16;9.80;93.70
52245;DHT22;55759;51.586;-1.758;2023-03-31T00:41:43;9.80;93.70
52245;DHT22;55759;51.586;-1.758;2023-03-31T00:44:16;9.80;93.80
52245;DHT22;55759;51.586;-1.758;2023-03-31T00:49:37;9.90;93.90
52245;DHT22;55759;51.586;-1.758;2023-03-31T00:52:17;9.90;93.90
52245;DHT22;55759;51.586;-1.758;2023-03-31T00:54:49;9.90;93.90
52245;DHT22;55759;51.586;-1.758;2023-03-31T00:57:16;10.00;94.00
52245;DHT22;55759;51.586;-1.758;2023-03-31T00:59:43;9.90;93.90
52245;DHT22;55759;51.586;-1.758;2023-03-31T01:02:12;9.90;93.90
52245;DHT22;55759;51.586;-1.758;2023-03-31T01:04:42;9.90;94.00
52245;DHT22;55759;51.586;-1.758;2023-03-31T01:07:15;9.90;94.00
52245;DHT22;55759;51.586;-1.758;2023-03-31T01:09:44;10.00;94.00
52245;DHT22;55759;51.586;-1.758;2023-03-31T01:12:13;10.00;94.00
52245;DHT22;55759;51.586;-1.758;2023-03-31T01:14:40;10.00;94.10
52245;DHT22;55759;51.586;-1.758;2023-03-31T01:17:06;10.00;94.00
52245;DHT22;55759;51.586;-1.758;2023-03-31T01:20:02;10.10;94.00
52245;DHT22;55759;51.586;-1.758;2023-03-31T01:28:49;10.10;94.00
52245;DHT22;55759;51.586;-1.758;2023-03-31T01:40:03;10.10;93.90
52245;DHT22;55759;51.586;-1.758;2023-03-31T01:45:31;10.10;93.90
52245;DHT22;55759;51.586;-1.758;2023-03-31T01:51:16;10.10;93.90
52245;DHT22;55759;51.586;-1.758;2023-03-31T01:53:53;10.10;93.90
52245;DHT22;55759;51.586;-1.758;2023-03-31T01:56:48;10.10;93.90
52245;DHT22;55759;51.586;-1.758;2023-03-31T01:59:37;10.20;93.90
52245;DHT22;55759;51.586;-1.758;2023-03-31T02:02:08;10.10;93.90
52245;DHT22;55759;51.586;-1.758;2023-03-31T02:04:45;10.10;93.90
52245;DHT22;55759;51.586;-1.758;2023-03-31T02:07:16;10.10;93.90
52245;DHT22;55759;51.586;-1.758;2023-03-31T02:09:46;10.10;93.80
52245;DHT22;55759;51.586;-1.758;2023-03-31T02:12:14;10.10;93.70
52245;DHT22;55759;51.586;-1.758;2023-03-31T02:14:44;10.10;93.60
52245;DHT22;55759;51.586;-1.758;2023-03-31T02:17:16;10.10;93.50
52245;DHT22;55759;51.586;-1.758;2023-03-31T02:19:46;10.10;93.40
52245;DHT22;55759;51.586;-1.758;2023-03-31T02:22:13;10.10;93.40
52245;DHT22;55759;51.586;-1.758;2023-03-31T02:24:42;10.10;93.40
52245;DHT22;55759;51.586;-1.758;2023-03-31T02:27:14;10.00;93.20
52245;DHT22;55759;51.586;-1.758;2023-03-31T02:29:43;10.00;93.20
52245;DHT22;55759;51.586;-1.758;2023-03-31T02:32:31;9.90;93.20
52245;DHT22;55759;51.586;-1.758;2023-03-31T02:34:58;9.90;93.10
52245;DHT22;55759;51.586;-1.758;2023-03-31T02:37:24;9.90;93.10
52245;DHT22;55759;51.586;-1.758;2023-03-31T02:39:52;9.90;93.00
52245;DHT22;55759;51.586;-1.758;2023-03-31T02:42:20;9.80;93.00
52245;DHT22;55759;51.586;-1.758;2023-03-31T02:44:46;9.80;93.00
52245;DHT22;55759;51.586;-1.758;2023-03-31T02:47:13;9.70;93.00
52245;DHT22;55759;51.586;-1.758;2023-03-31T02:50:00;9.70;92.90
52245;DHT22;55759;51.586;-1.758;2023-03-31T02:52:48;9.70;92.90
52245;DHT22;55759;51.586;-1.758;2023-03-31T02:55:41;9.60;92.80
52245;DHT22;55759;51.586;-1.758;2023-03-31T03:01:09;9.60;92.80
52245;DHT22;55759;51.586;-1.758;2023-03-31T03:04:01;9.50;92.80
52245;DHT22;55759;51.586;-1.758;2023-03-31T03:06:41;9.50;92.90
52245;DHT22;55759;51.586;-1.758;2023-03-31T03:14:46;9.40;93.20
52245;DHT22;55759;51.586;-1.758;2023-03-31T03:19:51;9.50;93.40
52245;DHT22;55759;51.586;-1.758;2023-03-31T03:22:17;9.50;93.40
52245;DHT22;55759;51.586;-1.758;2023-03-31T03:24:42;9.50;93.50
52245;DHT22;55759;51.586;-1.758;2023-03-31T03:27:09;9.50;93.60
52245;DHT22;55759;51.586;-1.758;2023-03-31T03:29:34;9.60;93.70
52245;DHT22;55759;51.586;-1.758;2023-03-31T03:32:03;9.60;93.70
52245;DHT22;55759;51.586;-1.758;2023-03-31T03:34:29;9.60;93.80
52245;DHT22;55759;51.586;-1.758;2023-03-31T03:36:55;9.70;93.80
52245;DHT22;55759;51.586;-1.758;2023-03-31T03:39:21;9.70;93.80
52245;DHT22;55759;51.586;-1.758;2023-03-31T03:41:46;9.70;93.70
52245;DHT22;55759;51.586;-1.758;2023-03-31T03:44:12;9.70;93.70
52245;DHT22;55759;51.586;-1.758;2023-03-31T03:46:38;9.70;93.70
52245;DHT22;55759;51.586;-1.758;2023-03-31T03:49:03;9.70;93.70
52245;DHT22;55759;51.586;-1.758;2023-03-31T03:51:29;9.70;93.80
52245;DHT22;55759;51.586;-1.758;2023-03-31T03:53:55;9.70;93.80
52245;DHT22;55759;51.586;-1.758;2023-03-31T03:56:20;9.70;93.80
52245;DHT22;55759;51.586;-1.758;2023-03-31T03:58:46;9.70;93.90
52245;DHT22;55759;51.586;-1.758;2023-03-31T04:01:12;9.70;93.90
52245;DHT22;55759;51.586;-1.758;2023-03-31T04:03:39;9.70;93.90
52245;DHT22;55759;51.586;-1.758;2023-03-31T04:06:05;9.70;93.80
52245;DHT22;55759;51.586;-1.758;2023-03-31T04:08:31;9.70;93.80
52245;DHT22;55759;51.586;-1.758;2023-03-31T04:10:56;9.70;93.80
52245;DHT22;55759;51.586;-1.758;2023-03-31T04:13:22;9.70;93.80
52245;DHT22;55759;51.586;-1.758;2023-03-31T04:15:48;9.70;93.80
52245;DHT22;55759;51.586;-1.758;2023-03-31T04:18:14;9.70;93.70
52245;DHT22;55759;51.586;-1.758;2023-03-31T04:20:52;9.70;93.70
52245;DHT22;55759;51.586;-1.758;2023-03-31T04:23:38;9.70;93.70
52245;DHT22;55759;51.586;-1.758;2023-03-31T04:26:10;9.70;93.70
52245;DHT22;55759;51.586;-1.758;2023-03-31T04:28:36;9.70;93.80
52245;DHT22;55759;51.586;-1.758;2023-03-31T04:31:04;9.70;93.70
52245;DHT22;55759;51.586;-1.758;2023-03-31T04:33:32;9.70;93.70
52245;DHT22;55759;51.586;-1.758;2023-03-31T04:35:59;9.70;93.60
52245;DHT22;55759;51.586;-1.758;2023-03-31T04:38:32;9.80;93.70
52245;DHT22;55759;51.586;-1.758;2023-03-31T04:40:58;9.70;93.70
52245;DHT22;55759;51.586;-1.758;2023-03-31T04:43:24;9.70;93.70
52245;DHT22;55759;51.586;-1.758;2023-03-31T04:45:50;9.80;93.70
52245;DHT22;55759;51.586;-1.758;2023-03-31T04:48:16;9.80;93.70
52245;DHT22;55759;51.586;-1.758;2023-03-31T04:50:41;9.80;93.70
52245;DHT22;55759;51.586;-1.758;2023-03-31T04:53:07;9.80;93.60
52245;DHT22;55759;51.586;-1.758;2023-03-31T04:55:33;9.80;93.60
52245;DHT22;55759;51.586;-1.758;2023-03-31T04:57:59;9.80;93.60
52245;DHT22;55759;51.586;-1.758;2023-03-31T05:00:25;9.80;93.60
52245;DHT22;55759;51.586;-1.758;2023-03-31T05:02:51;9.80;93.60
52245;DHT22;55759;51.586;-1.758;2023-03-31T05:05:17;9.80;93.60
52245;DHT22;55759;51.586;-1.758;2023-03-31T05:07:43;9.80;93.60
52245;DHT22;55759;51.586;-1.758;2023-03-31T05:10:09;9.80;93.70
52245;DHT22;55759;51.586;-1.758;2023-03-31T05:12:38;9.90;93.60
52245;DHT22;55759;51.586;-1.758;2023-03-31T05:15:05;9.80;93.60
52245;DHT22;55759;51.586;-1.758;2023-03-31T05:17:31;9.80;93.60
52245;DHT22;55759;51.586;-1.758;2023-03-31T05:19:58;9.80;93.60
52245;DHT22;55759;51.586;-1.758;2023-03-31T05:22:24;9.90;93.60
52245;DHT22;55759;51.586;-1.758;2023-03-31T05:24:50;9.90;93.50
52245;DHT22;55759;51.586;-1.758;2023-03-31T05:27:16;9.90;93.50
52245;DHT22;55759;51.586;-1.758;2023-03-31T05:29:41;9.90;93.60
52245;DHT22;55759;51.586;-1.758;2023-03-31T05:32:07;9.90;93.60
52245;DHT22;55759;51.586;-1.758;2023-03-31T05:34:33;10.00;93.50
52245;DHT22;55759;51.586;-1.758;2023-03-31T05:36:58;10.00;93.40
52245;DHT22;55759;51.586;-1.758;2023-03-31T05:39:24;10.00;93.30
52245;DHT22;55759;51.586;-1.758;2023-03-31T05:41:50;10.00;93.30
52245;DHT22;55759;51.586;-1.758;2023-03-31T05:44:16;10.10;93.30
52245;DHT22;55759;51.586;-1.758;2023-03-31T05:46:41;10.10;93.30
52245;DHT22;55759;51.586;-1.758;2023-03-31T05:49:07;10.10;93.40
52245;DHT22;55759;51.586;-1.758;2023-03-31T05:51:33;10.10;93.30
52245;DHT22;55759;51.586;-1.758;2023-03-31T05:53:59;10.10;93.20
52245;DHT22;55759;51.586;-1.758;2023-03-31T05:56:25;10.10;93.20
52245;DHT22;55759;51.586;-1.758;2023-03-31T05:58:52;10.10;93.20
52245;DHT22;55759;51.586;-1.758;2023-03-31T06:01:18;10.10;93.00
52245;DHT22;55759;51.586;-1.758;2023-03-31T06:03:48;10.10;93.10
52245;DHT22;55759;51.586;-1.758;2023-03-31T06:06:14;10.10;93.00
52245;DHT22;55759;51.586;-1.758;2023-03-31T06:08:42;10.10;92.90
52245;DHT22;55759;51.586;-1.758;2023-03-31T06:11:10;10.10;93.00
52245;DHT22;55759;51.586;-1.758;2023-03-31T06:13:37;10.10;93.00
52245;DHT22;55759;51.586;-1.758;2023-03-31T06:16:03;10.20;93.00
52245;DHT22;55759;51.586;-1.758;2023-03-31T06:18:31;10.20;92.90
52245;DHT22;55759;51.586;-1.758;2023-03-31T06:20:57;10.20;92.90
52245;DHT22;55759;51.586;-1.758;2023-03-31T06:23:23;10.20;92.80
52245;DHT22;55759;51.586;-1.758;2023-03-31T06:25:49;10.10;92.90
52245;DHT22;55759;51.586;-1.758;2023-03-31T06:28:15;10.20;93.00
52245;DHT22;55759;51.586;-1.758;2023-03-31T06:30:41;10.20;93.10
52245;DHT22;55759;51.586;-1.758;2023-03-31T06:33:07;10.20;93.20
52245;DHT22;55759;51.586;-1.758;2023-03-31T06:35:36;10.20;93.20
52245;DHT22;55759;51.586;-1.758;2023-03-31T06:38:01;10.30;93.30
52245;DHT22;55759;51.586;-1.758;2023-03-31T06:40:28;10.20;93.20
52245;DHT22;55759;51.586;-1.758;2023-03-31T06:42:54;10.30;93.20
52245;DHT22;55759;51.586;-1.758;2023-03-31T06:45:20;10.30;93.20
52245;DHT22;55759;51.586;-1.758;2023-03-31T06:47:46;10.30;93.20
52245;DHT22;55759;51.586;-1.758;2023-03-31T06:50:11;10.30;93.20
52245;DHT22;55759;51.586;-1.758;2023-03-31T06:52:37;10.40;93.20
52245;DHT22;55759;51.586;-1.758;2023-03-31T07:01:28;10.40;93.30
52245;DHT22;55759;51.586;-1.758;2023-03-31T07:03:53;10.40;93.10
52245;DHT22;55759;51.586;-1.758;2023-03-31T07:06:22;10.30;93.00
52245;DHT22;55759;51.586;-1.758;2023-03-31T07:08:48;10.30;93.00
52245;DHT22;55759;51.586;-1.758;2023-03-31T07:11:14;10.30;93.10
52245;DHT22;55759;51.586;-1.758;2023-03-31T07:13:41;10.30;93.10
52245;DHT22;55759;51.586;-1.758;2023-03-31T07:16:07;10.40;93.20
52245;DHT22;55759;51.586;-1.758;2023-03-31T07:18:34;10.40;93.20
52245;DHT22;55759;51.586;-1.758;2023-03-31T07:21:01;10.40;93.20
52245;DHT22;55759;51.586;-1.758;2023-03-31T07:23:27;10.40;93.20
52245;DHT22;55759;51.586;-1.758;2023-03-31T07:25:53;10.50;93.30
52245;DHT22;55759;51.586;-1.758;2023-03-31T07:28:19;10.60;93.40
52245;DHT22;55759;51.586;-1.758;2023-03-31T07:30:45;10.70;93.10
52245;DHT22;55759;51.586;-1.758;2023-03-31T07:33:11;10.80;92.90
52245;DHT22;55759;51.586;-1.758;2023-03-31T07:35:38;10.80;92.50
52245;DHT22;55759;51.586;-1.758;2023-03-31T07:38:04;10.80;92.30
52245;DHT22;55759;51.586;-1.758;2023-03-31T07:40:32;10.80;92.30
52245;DHT22;55759;51.586;-1.758;2023-03-31T07:42:57;10.80;92.30
52245;DHT22;55759;51.586;-1.758;2023-03-31T07:45:25;10.70;92.30
52245;DHT22;55759;51.586;-1.758;2023-03-31T07:47:51;10.70;92.40
52245;DHT22;55759;51.586;-1.758;2023-03-31T07:50:17;10.70;92.60
52245;DHT22;55759;51.586;-1.758;2023-03-31T07:52:43;10.60;92.60
52245;DHT22;55759;51.586;-1.758;2023-03-31T07:55:09;10.60;92.60
52245;DHT22;55759;51.586;-1.758;2023-03-31T07:57:36;10.60;92.60
52245;DHT22;55759;51.586;-1.758;2023-03-31T08:00:04;10.60;92.70
52245;DHT22;55759;51.586;-1.758;2023-03-31T08:02:32;10.60;92.70
52245;DHT22;55759;51.586;-1.758;2023-03-31T08:04:58;10.50;92.60
52245;DHT22;55759;51.586;-1.758;2023-03-31T08:07:24;10.50;92.60
52245;DHT22;55759;51.586;-1.758;2023-03-31T08:09:51;10.40;92.70
52245;DHT22;55759;51.586;-1.758;2023-03-31T08:12:16;10.30;92.70
52245;DHT22;55759;51.586;-1.758;2023-03-31T08:14:42;10.30;92.90
52245;DHT22;55759;51.586;-1.758;2023-03-31T08:17:09;10.30;93.00
52245;DHT22;55759;51.586;-1.758;2023-03-31T08:19:35;10.30;93.10
52245;DHT22;55759;51.586;-1.758;2023-03-31T08:22:00;10.30;93.10
52245;DHT22;55759;51.586;-1.758;2023-03-31T08:24:28;10.30;93.00
52245;DHT22;55759;51.586;-1.758;2023-03-31T08:26:54;10.30;93.10
52245;DHT22;55759;51.586;-1.758;2023-03-31T08:29:20;10.40;93.10
52245;DHT22;55759;51.586;-1.758;2023-03-31T08:31:46;10.40;93.20
52245;DHT22;55759;51.586;-1.758;2023-03-31T08:34:12;10.40;93.20
52245;DHT22;55759;51.586;-1.758;2023-03-31T08:36:37;10.40;93.10
52245;DHT22;55759;51.586;-1.758;2023-03-31T08:39:03;10.40;93.20
52245;DHT22;55759;51.586;-1.758;2023-03-31T08:46:46;10.50;93.20
52245;DHT22;55759;51.586;-1.758;2023-03-31T08:49:15;10.60;93.10
52245;DHT22;55759;51.586;-1.758;2023-03-31T08:51:57;10.60;93.10
52245;DHT22;55759;51.586;-1.758;2023-03-31T08:54:32;10.70;92.90
52245;DHT22;55759;51.586;-1.758;2023-03-31T08:56:59;10.90;93.00
52245;DHT22;55759;51.586;-1.758;2023-03-31T08:59:33;11.20;92.50
52245;DHT22;55759;51.586;-1.758;2023-03-31T09:14:59;11.70;90.40
52245;DHT22;55759;51.586;-1.758;2023-03-31T09:17:42;11.70;90.20
52245;DHT22;55759;51.586;-1.758;2023-03-31T09:25:27;11.90;89.90
52245;DHT22;55759;51.586;-1.758;2023-03-31T09:27:57;12.00;89.90
52245;DHT22;55759;51.586;-1.758;2023-03-31T09:38:09;11.80;89.80
52245;DHT22;55759;51.586;-1.758;2023-03-31T09:40:36;11.90;89.40
52245;DHT22;55759;51.586;-1.758;2023-03-31T09:43:09;11.90;89.00
52245;DHT22;55759;51.586;-1.758;2023-03-31T09:45:40;12.00;88.90
52245;DHT22;55759;51.586;-1.758;2023-03-31T09:48:15;12.00;88.90
52245;DHT22;55759;51.586;-1.758;2023-03-31T09:50:50;12.10;88.80
52245;DHT22;55759;51.586;-1.758;2023-03-31T09:56:08;12.10;88.80
52245;DHT22;55759;51.586;-1.758;2023-03-31T09:58:43;12.20;88.40
52245;DHT22;55759;51.586;-1.758;2023-03-31T10:01:11;12.20;88.00
52245;DHT22;55759;51.586;-1.758;2023-03-31T10:03:52;12.30;87.50
52245;DHT22;55759;51.586;-1.758;2023-03-31T10:18:42;12.50;87.40
52245;DHT22;55759;51.586;-1.758;2023-03-31T10:21:35;12.40;87.00
52245;DHT22;55759;51.586;-1.758;2023-03-31T10:24:07;12.20;87.70
52245;DHT22;55759;51.586;-1.758;2023-03-31T10:26:34;12.10;88.40
52245;DHT22;55759;51.586;-1.758;2023-03-31T10:29:00;12.00;88.70
52245;DHT22;55759;51.586;-1.758;2023-03-31T10:31:32;11.90;89.10
52245;DHT22;55759;51.586;-1.758;2023-03-31T10:34:07;11.90;89.60
52245;DHT22;55759;51.586;-1.758;2023-03-31T10:36:33;11.90;89.70
52245;DHT22;55759;51.586;-1.758;2023-03-31T10:39:05;12.00;89.90
52245;DHT22;55759;51.586;-1.758;2023-03-31T10:41:32;12.10;89.90
52245;DHT22;55759;51.586;-1.758;2023-03-31T10:43:59;12.20;89.90
52245;DHT22;55759;51.586;-1.758;2023-03-31T10:49:36;12.40;88.80
52245;DHT22;55759;51.586;-1.758;2023-03-31T10:52:22;12.70;88.90
52245;DHT22;55759;51.586;-1.758;2023-03-31T10:54:59;13.00;87.80
52245;DHT22;55759;51.586;-1.758;2023-03-31T10:57:52;13.40;86.40
52245;DHT22;55759;51.586;-1.758;2023-03-31T11:00:42;13.80;85.80
52245;DHT22;55759;51.586;-1.758;2023-03-31T11:06:12;14.50;82.90
52245;DHT22;55759;51.586;-1.758;2023-03-31T11:19:57;13.30;84.20
52245;DHT22;55759;51.586;-1.758;2023-03-31T11:32:53;13.80;84.50
52245;DHT22;55759;51.586;-1.758;2023-03-31T11:43:45;14.80;80.50
52245;DHT22;55759;51.586;-1.758;2023-03-31T11:46:30;15.10;79.70
52245;DHT22;55759;51.586;-1.758;2023-03-31T11:49:07;15.20;79.00
52245;DHT22;55759;51.586;-1.758;2023-03-31T11:52:15;14.80;80.50
52245;DHT22;55759;51.586;-1.758;2023-03-31T11:57:37;13.90;83.00
52245;DHT22;55759;51.586;-1.758;2023-03-31T12:00:26;13.50;84.10
52245;DHT22;55759;51.586;-1.758;2023-03-31T12:05:57;14.00;84.10
52245;DHT22;55759;51.586;-1.758;2023-03-31T12:09:18;13.80;83.90
52245;DHT22;55759;51.586;-1.758;2023-03-31T12:14:38;13.50;84.70
52245;DHT22;55759;51.586;-1.758;2023-03-31T12:17:13;13.60;84.40
52245;DHT22;55759;51.586;-1.758;2023-03-31T12:19:53;13.60;84.20
52245;DHT22;55759;51.586;-1.758;2023-03-31T12:24:51;13.10;86.30
52245;DHT22;55759;51.586;-1.758;2023-03-31T12:27:24;13.10;87.20
52245;DHT22;55759;51.586;-1.758;2023-03-31T12:32:58;13.60;88.30
52245;DHT22;55759;51.586;-1.758;2023-03-31T12:35:43;15.40;86.60
52245;DHT22;55759;51.586;-1.758;2023-03-31T12:38:32;18.40;77.90
52245;DHT22;55759;51.586;-1.758;2023-03-31T12:41:19;19.80;70.30
52245;DHT22;55759;51.586;-1.758;2023-03-31T12:47:08;17.10;72.00
52245;DHT22;55759;51.586;-1.758;2023-03-31T12:57:30;13.20;85.40
52245;DHT22;55759;51.586;-1.758;2023-03-31T13:02:41;12.20;87.00
52245;DHT22;55759;51.586;-1.758;2023-03-31T13:08:02;11.60;87.70
52245;DHT22;55759;51.586;-1.758;2023-03-31T13:10:30;11.50;88.00
52245;DHT22;55759;51.586;-1.758;2023-03-31T13:13:03;11.50;88.60
52245;DHT22;55759;51.586;-1.758;2023-03-31T13:15:29;11.50;89.30
52245;DHT22;55759;51.586;-1.758;2023-03-31T13:17:58;11.60;89.50
52245;DHT22;55759;51.586;-1.758;2023-03-31T13:20:33;11.60;89.80
52245;DHT22;55759;51.586;-1.758;2023-03-31T13:23:05;11.70;89.90
52245;DHT22;55759;51.586;-1.758;2023-03-31T13:25:43;11.90;90.40
52245;DHT22;55759;51.586;-1.758;2023-03-31T13:33:58;15.40;88.20
52245;DHT22;55759;51.586;-1.758;2023-03-31T13:41:52;23.10;60.30
52245;DHT22;55759;51.586;-1.758;2023-03-31T13:44:31;24.30;54.20
52245;DHT22;55759;51.586;-1.758;2023-03-31T13:49:46;26.40;45.50
52245;DHT22;55759;51.586;-1.758;2023-03-31T13:55:21;27.70;42.00
52245;DHT22;55759;51.586;-1.758;2023-03-31T14:01:20;25.00;44.90
52245;DHT22;55759;51.586;-1.758;2023-03-31T14:04:17;23.60;47.80
52245;DHT22;55759;51.586;-1.758;2023-03-31T14:06:55;23.60;48.30
52245;DHT22;55759;51.586;-1.758;2023-03-31T14:09:34;25.50;46.40
52245;DHT22;55759;51.586;-1.758;2023-03-31T14:14:52;25.40;46.30
52245;DHT22;55759;51.586;-1.758;2023-03-31T14:17:20;25.10;45.40
52245;DHT22;55759;51.586;-1.758;2023-03-31T14:20:22;26.20;44.80
52245;DHT22;55759;51.586;-1.758;2023-03-31T14:23:00;25.90;43.50
52245;DHT22;55759;51.586;-1.758;2023-03-31T14:31:45;20.20;54.90
52245;DHT22;55759;51.586;-1.758;2023-03-31T14:39:13;17.60;64.80
52245;DHT22;55759;51.586;-1.758;2023-03-31T14:41:40;16.90;66.50
52245;DHT22;55759;51.586;-1.758;2023-03-31T14:44:13;16.50;68.50
52245;DHT22;55759;51.586;-1.758;2023-03-31T14:46:40;16.30;68.90
52245;DHT22;55759;51.586;-1.758;2023-03-31T14:49:36;16.30;70.50
52245;DHT22;55759;51.586;-1.758;2023-03-31T14:52:20;16.70;68.50
52245;DHT22;55759;51.586;-1.758;2023-03-31T14:54:51;16.60;68.00
52245;DHT22;55759;51.586;-1.758;2023-03-31T14:57:27;16.50;68.90
52245;DHT22;55759;51.586;-1.758;2023-03-31T14:59:54;16.20;68.50
52245;DHT22;55759;51.586;-1.758;2023-03-31T15:02:41;16.10;69.60
52245;DHT22;55759;51.586;-1.758;2023-03-31T15:05:20;15.90;70.00
52245;DHT22;55759;51.586;-1.758;2023-03-31T15:07:49;15.60;70.80
52245;DHT22;55759;51.586;-1.758;2023-03-31T15:10:18;15.70;71.30
52245;DHT22;55759;51.586;-1.758;2023-03-31T15:12:45;15.70;71.40
52245;DHT22;55759;51.586;-1.758;2023-03-31T15:15:12;15.50;71.60
52245;DHT22;55759;51.586;-1.758;2023-03-31T15:17:42;15.20;72.40
52245;DHT22;55759;51.586;-1.758;2023-03-31T15:20:29;15.00;73.40
52245;DHT22;55759;51.586;-1.758;2023-03-31T15:22:57;14.70;74.80
52245;DHT22;55759;51.586;-1.758;2023-03-31T15:25:36;14.40;75.40
52245;DHT22;55759;51.586;-1.758;2023-03-31T15:28:06;14.10;77.00
52245;DHT22;55759;51.586;-1.758;2023-03-31T15:30:35;13.70;78.50
52245;DHT22;55759;51.586;-1.758;2023-03-31T15:33:01;13.30;79.80
52245;DHT22;55759;51.586;-1.758;2023-03-31T15:35:31;13.10;80.70
52245;DHT22;55759;51.586;-1.758;2023-03-31T15:37:59;12.80;81.40
52245;DHT22;55759;51.586;-1.758;2023-03-31T15:40:39;12.60;83.20
52245;DHT22;55759;51.586;-1.758;2023-03-31T15:43:17;12.50;84.00
52245;DHT22;55759;51.586;-1.758;2023-03-31T15:48:21;12.20;84.30
52245;DHT22;55759;51.586;-1.758;2023-03-31T15:50:48;12.10;85.00
52245;DHT22;55759;51.586;-1.758;2023-03-31T15:53:27;12.10;85.50
52245;DHT22;55759;51.586;-1.758;2023-03-31T15:55:55;12.00;85.50
52245;DHT22;55759;51.586;-1.758;2023-03-31T15:58:24;11.90;85.90
52245;DHT22;55759;51.586;-1.758;2023-03-31T16:01:09;11.70;86.00
52245;DHT22;55759;51.586;-1.758;2023-03-31T16:03:36;11.60;86.50
52245;DHT22;55759;51.586;-1.758;2023-03-31T16:08:44;11.50;87.50
52245;DHT22;55759;51.586;-1.758;2023-03-31T16:11:21;11.40;87.90
52245;DHT22;55759;51.586;-1.758;2023-03-31T16:13:52;11.40;88.40
52245;DHT22;55759;51.586;-1.758;2023-03-31T16:16:21;11.30;88.00
52245;DHT22;55759;51.586;-1.758;2023-03-31T16:18:53;11.20;88.10
52245;DHT22;55759;51.586;-1.758;2023-03-31T16:21:23;11.20;88.50
52245;DHT22;55759;51.586;-1.758;2023-03-31T16:23:54;11.10;88.70
52245;DHT22;55759;51.586;-1.758;2023-03-31T16:26:22;11.00;88.80
52245;DHT22;55759;51.586;-1.758;2023-03-31T16:28:49;11.00;89.10
52245;DHT22;55759;51.586;-1.758;2023-03-31T16:31:35;11.00;89.50
52245;DHT22;55759;51.586;-1.758;2023-03-31T16:34:04;10.90;89.40
52245;DHT22;55759;51.586;-1.758;2023-03-31T16:36:30;10.90;89.70
52245;DHT22;55759;51.586;-1.758;2023-03-31T16:38:56;10.90;89.90
52245;DHT22;55759;51.586;-1.758;2023-03-31T16:41:26;10.80;90.20
52245;DHT22;55759;51.586;-1.758;2023-03-31T16:43:52;10.70;90.40
52245;DHT22;55759;51.586;-1.758;2023-03-31T16:46:20;10.70;90.80
52245;DHT22;55759;51.586;-1.758;2023-03-31T16:48:46;10.60;91.10
52245;DHT22;55759;51.586;-1.758;2023-03-31T16:51:12;10.60;91.30
52245;DHT22;55759;51.586;-1.758;2023-03-31T16:53:38;10.60;91.30
52245;DHT22;55759;51.586;-1.758;2023-03-31T16:56:05;10.60;91.40
52245;DHT22;55759;51.586;-1.758;2023-03-31T16:58:35;10.60;91.60
52245;DHT22;55759;51.586;-1.758;2023-03-31T17:01:02;10.50;91.60
52245;DHT22;55759;51.586;-1.758;2023-03-31T17:03:29;10.50;92.00
52245;DHT22;55759;51.586;-1.758;2023-03-31T17:05:55;10.50;92.00
52245;DHT22;55759;51.586;-1.758;2023-03-31T17:08:23;10.50;92.20
52245;DHT22;55759;51.586;-1.758;2023-03-31T17:10:55;10.50;92.20
52245;DHT22;55759;51.586;-1.758;2023-03-31T17:13:22;10.40;92.20
52245;DHT22;55759;51.586;-1.758;2023-03-31T17:15:48;10.40;92.10
52245;DHT22;55759;51.586;-1.758;2023-03-31T17:18:14;10.40;92.10
52245;DHT22;55759;51.586;-1.758;2023-03-31T17:20:40;10.40;92.30
52245;DHT22;55759;51.586;-1.758;2023-03-31T17:23:06;10.40;92.50
52245;DHT22;55759;51.586;-1.758;2023-03-31T17:25:34;10.40;92.40
52245;DHT22;55759;51.586;-1.758;2023-03-31T17:28:01;10.30;92.40
52245;DHT22;55759;51.586;-1.758;2023-03-31T17:30:29;10.30;92.40
52245;DHT22;55759;51.586;-1.758;2023-03-31T17:32:55;10.30;92.40
52245;DHT22;55759;51.586;-1.758;2023-03-31T17:35:21;10.30;92.40
52245;DHT22;55759;51.586;-1.758;2023-03-31T17:37:50;10.20;92.50
52245;DHT22;55759;51.586;-1.758;2023-03-31T17:40:19;10.20;92.60
52245;DHT22;55759;51.586;-1.758;2023-03-31T17:42:45;10.20;92.80
52245;DHT22;55759;51.586;-1.758;2023-03-31T17:45:14;10.20;92.80
52245;DHT22;55759;51.586;-1.758;2023-03-31T17:47:40;10.20;92.90
52245;DHT22;55759;51.586;-1.758;2023-03-31T17:50:07;10.20;92.70
52245;DHT22;55759;51.586;-1.758;2023-03-31T17:52:34;10.20;92.70
52245;DHT22;55759;51.586;-1.758;2023-03-31T17:55:01;10.20;92.70
52245;DHT22;55759;51.586;-1.758;2023-03-31T17:57:27;10.20;92.70
52245;DHT22;55759;51.586;-1.758;2023-03-31T17:59:53;10.20;92.70
52245;DHT22;55759;51.586;-1.758;2023-03-31T18:02:18;10.10;92.70
52245;DHT22;55759;51.586;-1.758;2023-03-31T18:04:45;10.10;92.70
52245;DHT22;55759;51.586;-1.758;2023-03-31T18:07:11;10.10;92.80
52245;DHT22;55759;51.586;-1.758;2023-03-31T18:09:37;10.10;92.80
52245;DHT22;55759;51.586;-1.758;2023-03-31T18:12:04;10.10;93.00
52245;DHT22;55759;51.586;-1.758;2023-03-31T18:14:30;10.00;93.00
52245;DHT22;55759;51.586;-1.758;2023-03-31T18:16:55;10.00;93.10
52245;DHT22;55759;51.586;-1.758;2023-03-31T18:19:22;10.00;93.10
52245;DHT22;55759;51.586;-1.758;2023-03-31T18:21:48;10.00;93.20
52245;DHT22;55759;51.586;-1.758;2023-03-31T18:24:14;10.00;93.30
52245;DHT22;55759;51.586;-1.758;2023-03-31T18:26:41;10.00;93.30
52245;DHT22;55759;51.586;-1.758;2023-03-31T18:29:06;9.90;93.30
52245;DHT22;55759;51.586;-1.758;2023-03-31T18:31:32;10.00;93.30
52245;DHT22;55759;51.586;-1.758;2023-03-31T18:33:58;10.00;93.40
52245;DHT22;55759;51.586;-1.758;2023-03-31T18:36:24;10.00;93.40
52245;DHT22;55759;51.586;-1.758;2023-03-31T18:38:51;10.00;93.40
52245;DHT22;55759;51.586;-1.758;2023-03-31T18:41:17;10.00;93.40
52245;DHT22;55759;51.586;-1.758;2023-03-31T18:43:43;10.10;93.30
52245;DHT22;55759;51.586;-1.758;2023-03-31T18:46:09;10.00;93.30
52245;DHT22;55759;51.586;-1.758;2023-03-31T18:48:35;10.00;93.30
52245;DHT22;55759;51.586;-1.758;2023-03-31T18:51:02;10.00;93.30
52245;DHT22;55759;51.586;-1.758;2023-03-31T18:53:29;9.90;93.40